createdAt,value
2022-12-11T00:00:05.358Z,26.85
2022-12-11T00:02:32.028Z,26.86
2022-12-11T00:04:58.752Z,26.80
2022-12-11T00:07:25.334Z,26.78
2022-12-11T00:09:51.935Z,26.74
2022-12-11T00:12:18.537Z,26.81
2022-12-11T00:14:45.123Z,26.77
2022-12-11T00:17:11.798Z,26.75
2022-12-11T00:19:38.435Z,26.76
2022-12-11T00:22:04.982Z,26.81
2022-12-11T00:24:31.551Z,26.79
2022-12-11T00:26:58.341Z,26.82
2022-12-11T00:29:24.979Z,26.85
2022-12-11T00:31:51.653Z,26.86
2022-12-11T00:34:18.348Z,26.74
2022-12-11T00:36:44.922Z,26.78
2022-12-11T00:39:11.574Z,26.73
2022-12-11T00:41:38.157Z,26.77
2022-12-11T00:44:05.030Z,26.76
2022-12-11T00:46:31.646Z,26.88
2022-12-11T00:48:58.531Z,26.80
2022-12-11T00:51:26.036Z,26.83
2022-12-11T00:53:52.889Z,26.78
2022-12-11T00:56:20.450Z,26.79
2022-12-11T00:58:47.404Z,26.87
2022-12-11T01:01:16.746Z,26.90
2022-12-11T01:03:43.361Z,26.79
2022-12-11T01:06:14.225Z,26.85
2022-12-11T01:08:40.818Z,26.75
2022-12-11T01:11:09.510Z,26.84
2022-12-11T01:13:36.409Z,26.88
2022-12-11T01:16:21.397Z,26.93
2022-12-11T01:18:48.139Z,26.91
2022-12-11T01:21:14.766Z,26.93
2022-12-11T01:23:41.355Z,26.92
2022-12-11T01:26:12.940Z,26.95
2022-12-11T01:28:39.949Z,26.95
2022-12-11T01:31:10.848Z,26.90
2022-12-11T01:33:37.888Z,26.88
2022-12-11T01:36:30.928Z,26.92
2022-12-11T01:38:57.578Z,26.92
2022-12-11T01:41:24.145Z,26.95
2022-12-11T01:44:00.572Z,26.85
2022-12-11T01:46:27.744Z,26.95
2022-12-11T01:48:54.575Z,26.91
2022-12-11T01:51:21.227Z,26.99
2022-12-11T01:53:50.956Z,26.98
2022-12-11T01:56:17.557Z,26.96
2022-12-11T01:58:50.857Z,26.92
2022-12-11T02:01:26.237Z,26.95
2022-12-11T02:03:53.016Z,26.97
2022-12-11T02:06:42.095Z,26.99
2022-12-11T02:09:19.522Z,26.99
2022-12-11T02:12:07.476Z,27.02
2022-12-11T02:14:37.282Z,26.98
2022-12-11T02:17:07.701Z,27.03
2022-12-11T02:19:49.697Z,26.93
2022-12-11T02:22:35.203Z,26.94
2022-12-11T02:25:17.427Z,26.85
2022-12-11T02:28:35.229Z,26.91
2022-12-11T02:31:12.401Z,26.87
2022-12-11T02:33:45.430Z,26.87
2022-12-11T02:36:11.995Z,26.93
2022-12-11T02:38:41.608Z,26.94
2022-12-11T02:41:08.399Z,26.99
2022-12-11T02:43:35.209Z,26.95
2022-12-11T02:46:01.941Z,26.98
2022-12-11T02:48:28.680Z,26.96
2022-12-11T02:50:56.927Z,26.95
2022-12-11T02:53:25.575Z,26.98
2022-12-11T02:55:56.345Z,26.99
2022-12-11T02:58:25.064Z,26.93
2022-12-11T03:00:51.637Z,26.90
2022-12-11T03:03:18.241Z,26.76
2022-12-11T03:05:46.514Z,26.58
2022-12-11T03:08:17.421Z,26.43
2022-12-11T03:10:45.050Z,26.23
2022-12-11T03:13:12.545Z,26.01
2022-12-11T03:15:53.226Z,25.79
2022-12-11T03:18:44.352Z,25.64
2022-12-11T03:21:33.365Z,25.40
2022-12-11T03:24:10.310Z,25.20
2022-12-11T03:26:39.679Z,25.07
2022-12-11T03:29:13.935Z,24.88
2022-12-11T03:31:44.209Z,24.67
2022-12-11T03:34:23.616Z,24.50
2022-12-11T03:36:50.197Z,24.35
2022-12-11T03:39:22.294Z,24.20
2022-12-11T03:41:49.048Z,24.02
2022-12-11T03:44:15.923Z,23.88
2022-12-11T03:46:42.549Z,23.73
2022-12-11T03:49:22.989Z,23.60
2022-12-11T03:51:49.724Z,23.41
2022-12-11T03:54:16.483Z,23.27
2022-12-11T03:56:43.487Z,23.14
2022-12-11T03:59:10.071Z,23.10
2022-12-11T04:01:36.896Z,23.36
2022-12-11T04:04:03.778Z,23.79
2022-12-11T04:06:30.468Z,24.15
2022-12-11T04:08:57.060Z,24.81
2022-12-11T04:11:35.772Z,25.87
2022-12-11T04:14:31.627Z,27.04
2022-12-11T04:16:58.899Z,28.49
2022-12-11T04:19:44.068Z,29.79
2022-12-11T04:22:30.370Z,30.74
2022-12-11T04:24:57.053Z,31.11
2022-12-11T04:27:42.372Z,30.83
2022-12-11T04:30:11.597Z,30.66
2022-12-11T04:32:38.142Z,30.47
2022-12-11T04:35:06.322Z,30.37
2022-12-11T04:37:32.972Z,30.35
2022-12-11T04:39:59.559Z,30.38
2022-12-11T04:42:26.121Z,30.52
2022-12-11T04:44:52.695Z,30.85
2022-12-11T04:47:19.271Z,31.52
2022-12-11T04:49:46.032Z,32.04
2022-12-11T04:52:12.601Z,32.44
2022-12-11T04:54:39.843Z,32.67
2022-12-11T04:57:06.470Z,32.76
2022-12-11T04:59:33.464Z,32.77
2022-12-11T05:02:00.135Z,32.73
2022-12-11T05:04:33.088Z,32.76
2022-12-11T05:06:59.993Z,32.76
2022-12-11T05:09:27.166Z,32.71
2022-12-11T05:11:53.875Z,32.72
2022-12-11T05:14:20.592Z,32.66
2022-12-11T05:16:47.206Z,32.66
2022-12-11T05:19:13.781Z,32.60
2022-12-11T05:21:40.360Z,32.59
2022-12-11T05:24:07.304Z,32.59
2022-12-11T05:26:33.868Z,32.59
2022-12-11T05:29:00.489Z,32.54
2022-12-11T05:31:27.618Z,32.55
2022-12-11T05:33:54.240Z,32.56
2022-12-11T05:36:39.571Z,32.59
2022-12-11T05:39:06.208Z,32.63
2022-12-11T05:41:33.707Z,32.60
2022-12-11T05:44:00.571Z,32.61
2022-12-11T05:46:28.692Z,32.61
2022-12-11T05:49:00.088Z,32.60
2022-12-11T05:51:27.577Z,32.65
2022-12-11T05:53:54.388Z,32.67
2022-12-11T05:56:22.806Z,32.61
2022-12-11T05:58:49.957Z,32.54
2022-12-11T06:01:19.049Z,32.61
2022-12-11T06:03:45.757Z,32.58
2022-12-11T06:06:12.423Z,32.53
2022-12-11T06:08:39.046Z,32.57
2022-12-11T06:11:05.864Z,32.58
2022-12-11T06:13:32.611Z,32.52
2022-12-11T06:16:03.246Z,32.47
2022-12-11T06:18:29.878Z,32.39
2022-12-11T06:20:56.513Z,32.26
2022-12-11T06:23:23.250Z,32.32
2022-12-11T06:25:49.886Z,32.29
2022-12-11T06:28:16.628Z,32.27
2022-12-11T06:30:43.269Z,32.21
2022-12-11T06:33:09.903Z,32.18
2022-12-11T06:35:42.095Z,32.17
2022-12-11T06:38:11.264Z,32.20
2022-12-11T06:40:38.315Z,32.21
2022-12-11T06:43:04.888Z,32.18
2022-12-11T06:45:31.532Z,32.13
2022-12-11T06:47:58.748Z,32.09
2022-12-11T06:50:25.535Z,32.09
2022-12-11T06:52:52.165Z,32.09
2022-12-11T06:55:21.101Z,32.10
2022-12-11T06:57:47.668Z,32.13
2022-12-11T07:00:14.854Z,32.08
2022-12-11T07:02:41.531Z,32.10
2022-12-11T07:05:08.381Z,32.08
2022-12-11T07:07:35.049Z,32.11
2022-12-11T07:10:07.564Z,32.06
2022-12-11T07:12:35.218Z,32.09
2022-12-11T07:15:01.795Z,32.10
2022-12-11T07:17:28.878Z,32.08
2022-12-11T07:19:55.514Z,32.08
2022-12-11T07:22:22.075Z,32.05
2022-12-11T07:24:48.686Z,32.05
2022-12-11T07:27:15.281Z,32.02
2022-12-11T07:29:41.838Z,32.05
2022-12-11T07:32:08.496Z,32.04
2022-12-11T07:34:35.173Z,32.04
2022-12-11T07:37:01.817Z,32.04
2022-12-11T07:39:28.379Z,32.06
2022-12-11T07:41:55.207Z,32.03
2022-12-11T07:44:21.790Z,32.04
2022-12-11T07:46:48.351Z,32.05
2022-12-11T07:49:14.916Z,32.04
2022-12-11T07:51:42.678Z,32.06
2022-12-11T07:54:12.945Z,32.05
2022-12-11T07:56:43.653Z,32.06
2022-12-11T07:59:10.876Z,32.05
2022-12-11T08:01:37.662Z,32.08
2022-12-11T08:04:05.539Z,32.07
2022-12-11T08:06:36.007Z,32.06
2022-12-11T08:09:04.163Z,32.04
2022-12-11T08:11:33.642Z,32.01
2022-12-11T08:14:00.283Z,31.99
2022-12-11T08:16:29.965Z,31.99
2022-12-11T08:18:56.764Z,32.02
2022-12-11T08:21:25.561Z,32.02
2022-12-11T08:23:52.636Z,31.99
2022-12-11T08:26:22.108Z,31.97
2022-12-11T08:28:48.792Z,31.97
2022-12-11T08:31:15.733Z,31.98
2022-12-11T08:33:43.458Z,31.97
2022-12-11T08:36:11.975Z,31.99
2022-12-11T08:38:38.722Z,31.97
2022-12-11T08:41:12.520Z,31.98
2022-12-11T08:43:39.173Z,31.98
2022-12-11T08:46:07.306Z,31.99
2022-12-11T08:48:34.868Z,31.99
2022-12-11T08:51:02.144Z,31.98
2022-12-11T08:53:30.020Z,31.96
2022-12-11T08:56:13.531Z,31.94
2022-12-11T08:58:40.397Z,31.98
2022-12-11T09:01:09.037Z,31.97
2022-12-11T09:03:36.711Z,31.77
2022-12-11T09:06:07.381Z,31.41
2022-12-11T09:08:34.223Z,31.00
2022-12-11T09:11:11.199Z,30.67
2022-12-11T09:13:38.211Z,30.31
2022-12-11T09:16:06.370Z,29.92
2022-12-11T09:18:35.430Z,29.54
2022-12-11T09:21:02.999Z,29.13
2022-12-11T09:23:31.986Z,28.78
2022-12-11T09:25:58.791Z,28.47
2022-12-11T09:28:25.666Z,28.45
2022-12-11T09:30:52.396Z,28.76
2022-12-11T09:33:19.040Z,29.08
2022-12-11T09:35:45.756Z,29.31
2022-12-11T09:38:12.385Z,29.52
2022-12-11T09:40:43.374Z,29.68
2022-12-11T09:43:19.618Z,29.67
2022-12-11T09:45:46.631Z,29.55
2022-12-11T09:48:13.315Z,29.39
2022-12-11T09:50:39.954Z,29.16
2022-12-11T09:53:16.895Z,28.94
2022-12-11T09:56:08.006Z,28.74
2022-12-11T09:59:06.908Z,28.56
2022-12-11T10:01:42.740Z,28.39
2022-12-11T10:04:13.227Z,28.23
2022-12-11T10:06:49.978Z,28.22
2022-12-11T10:09:42.520Z,28.08
2022-12-11T10:12:11.805Z,28.06
2022-12-11T10:14:53.788Z,28.07
2022-12-11T10:17:41.883Z,28.11
2022-12-11T10:20:19.146Z,28.00
2022-12-11T10:22:45.785Z,28.04
2022-12-11T10:25:56.327Z,27.97
2022-12-11T10:28:23.114Z,28.08
2022-12-11T10:31:05.767Z,28.10
2022-12-11T10:33:56.705Z,28.12
2022-12-11T10:36:42.492Z,28.11
2022-12-11T10:39:27.294Z,27.92
2022-12-11T10:41:54.750Z,27.90
2022-12-11T10:44:29.550Z,27.80
2022-12-11T10:47:07.270Z,27.86
2022-12-11T10:49:34.958Z,27.98
2022-12-11T10:52:01.978Z,28.14
2022-12-11T10:54:42.452Z,28.06
2022-12-11T10:57:10.634Z,28.08
2022-12-11T10:59:43.186Z,28.07
2022-12-11T11:02:36.951Z,28.13
2022-12-11T11:05:17.967Z,28.03
2022-12-11T11:07:44.588Z,27.83
2022-12-11T11:10:11.249Z,27.87
2022-12-11T11:12:46.004Z,27.97
2022-12-11T11:15:16.803Z,27.92
2022-12-11T11:17:54.514Z,28.01
2022-12-11T11:20:26.704Z,28.05
2022-12-11T11:22:58.144Z,28.04
2022-12-11T11:25:26.299Z,28.04
2022-12-11T11:28:03.368Z,28.01
2022-12-11T11:30:40.130Z,27.85
2022-12-11T11:33:15.510Z,27.95
2022-12-11T11:36:01.683Z,27.96
2022-12-11T11:38:32.142Z,28.02
2022-12-11T11:41:10.109Z,28.07
2022-12-11T11:43:48.724Z,27.96
2022-12-11T11:46:18.441Z,28.00
2022-12-11T11:48:58.778Z,27.75
2022-12-11T11:51:30.532Z,27.89
2022-12-11T11:53:59.314Z,27.88
2022-12-11T11:56:27.846Z,27.87
2022-12-11T11:59:13.196Z,27.89
2022-12-11T12:01:41.996Z,27.93
2022-12-11T12:04:08.637Z,27.82
2022-12-11T12:06:53.165Z,27.78
2022-12-11T12:09:57.958Z,27.86
2022-12-11T12:12:34.336Z,27.92
2022-12-11T12:15:36.396Z,27.86
2022-12-11T12:18:15.278Z,27.95
2022-12-11T12:20:55.591Z,27.91
2022-12-11T12:23:36.414Z,27.91
2022-12-11T12:26:28.898Z,27.94
2022-12-11T12:29:17.405Z,28.01
2022-12-11T12:32:08.525Z,28.02
2022-12-11T12:34:47.591Z,28.02
2022-12-11T12:37:45.864Z,27.98
2022-12-11T12:40:32.664Z,27.98
2022-12-11T12:43:18.635Z,27.98
2022-12-11T12:46:17.664Z,27.83
2022-12-11T12:48:44.406Z,27.91
2022-12-11T12:51:13.855Z,27.90
2022-12-11T12:53:40.462Z,27.91
2022-12-11T12:56:07.436Z,27.80
2022-12-11T12:58:33.898Z,27.89
2022-12-11T13:01:17.399Z,27.72
2022-12-11T13:03:51.429Z,27.79
2022-12-11T13:06:37.301Z,27.80
2022-12-11T13:09:19.432Z,27.88
2022-12-11T13:11:46.568Z,27.97
2022-12-11T13:14:16.185Z,27.92
2022-12-11T13:16:43.705Z,27.80
2022-12-11T13:19:25.633Z,27.87
2022-12-11T13:22:15.823Z,27.86
2022-12-11T13:25:24.457Z,27.79
2022-12-11T13:27:51.105Z,27.69
2022-12-11T13:30:25.955Z,27.65
2022-12-11T13:33:05.671Z,27.78
2022-12-11T13:35:32.728Z,27.82
2022-12-11T13:38:03.953Z,27.81
2022-12-11T13:40:39.099Z,27.81
2022-12-11T13:43:16.598Z,27.82
2022-12-11T13:45:43.148Z,27.90
2022-12-11T13:48:27.036Z,27.90
2022-12-11T13:50:54.175Z,27.88
2022-12-11T13:53:21.332Z,27.80
2022-12-11T13:55:58.456Z,27.91
2022-12-11T13:58:25.097Z,27.92
2022-12-11T14:01:07.986Z,27.91
2022-12-11T14:03:34.650Z,27.79
2022-12-11T14:06:01.649Z,27.87
2022-12-11T14:08:33.248Z,27.90
2022-12-11T14:10:59.979Z,27.94
2022-12-11T14:13:29.288Z,27.90
2022-12-11T14:15:55.911Z,27.96
2022-12-11T14:18:24.731Z,27.85
2022-12-11T14:21:02.581Z,27.83
2022-12-11T14:23:36.132Z,27.83
2022-12-11T14:26:18.948Z,27.92
2022-12-11T14:28:45.647Z,27.90
2022-12-11T14:31:23.631Z,27.96
2022-12-11T14:33:54.017Z,27.90
2022-12-11T14:36:20.778Z,27.88
2022-12-11T14:39:03.529Z,27.76
2022-12-11T14:41:36.621Z,27.77
2022-12-11T14:44:04.381Z,27.75
2022-12-11T14:46:48.745Z,27.82
2022-12-11T14:49:22.853Z,27.83
2022-12-11T14:51:51.585Z,27.90
2022-12-11T14:54:39.823Z,27.80
2022-12-11T14:57:06.726Z,27.79
2022-12-11T14:59:39.069Z,27.88
2022-12-11T15:02:24.463Z,27.86
2022-12-11T15:05:19.353Z,27.72
2022-12-11T15:08:02.902Z,27.72
2022-12-11T15:10:41.782Z,27.76
2022-12-11T15:13:08.762Z,27.75
2022-12-11T15:15:47.851Z,27.76
2022-12-11T15:18:29.884Z,27.73
2022-12-11T15:20:59.391Z,27.74
2022-12-11T15:23:26.350Z,27.72
2022-12-11T15:25:54.419Z,27.78
2022-12-11T15:28:34.873Z,27.85
2022-12-11T15:31:04.092Z,27.87
2022-12-11T15:33:34.383Z,27.93
2022-12-11T15:36:06.330Z,28.12
2022-12-11T15:38:39.662Z,28.26
2022-12-11T15:41:07.116Z,28.25
2022-12-11T15:43:36.222Z,28.26
2022-12-11T15:46:03.752Z,28.38
2022-12-11T15:48:30.576Z,28.36
2022-12-11T15:50:57.335Z,28.37
2022-12-11T15:53:24.162Z,28.48
2022-12-11T15:55:51.049Z,28.47
2022-12-11T15:58:19.386Z,28.46
2022-12-11T16:00:46.173Z,28.41
2022-12-11T16:03:13.933Z,28.39
2022-12-11T16:05:41.689Z,28.29
2022-12-11T16:08:19.331Z,28.28
2022-12-11T16:10:46.232Z,28.35
2022-12-11T16:13:13.268Z,28.25
2022-12-11T16:15:41.784Z,28.29
2022-12-11T16:18:11.273Z,28.23
2022-12-11T16:20:38.419Z,28.30
2022-12-11T16:23:05.383Z,28.28
2022-12-11T16:25:32.945Z,28.33
2022-12-11T16:28:00.679Z,28.29
2022-12-11T16:30:28.245Z,28.22
2022-12-11T16:32:55.125Z,28.25
2022-12-11T16:35:22.093Z,28.21
2022-12-11T16:37:52.773Z,28.19
2022-12-11T16:40:19.685Z,28.19
2022-12-11T16:42:46.383Z,28.21
2022-12-11T16:45:24.158Z,28.16
2022-12-11T16:47:53.566Z,28.19
2022-12-11T16:50:20.718Z,28.18
2022-12-11T16:52:47.452Z,28.22
2022-12-11T16:55:15.024Z,28.30
2022-12-11T16:57:42.155Z,28.27
2022-12-11T17:00:10.149Z,28.29
2022-12-11T17:02:37.028Z,28.28
2022-12-11T17:05:03.894Z,28.25
2022-12-11T17:07:34.153Z,28.37
2022-12-11T17:10:02.997Z,28.28
2022-12-11T17:12:30.223Z,28.24
2022-12-11T17:14:56.867Z,28.29
2022-12-11T17:17:23.720Z,28.18
2022-12-11T17:19:50.452Z,28.17
2022-12-11T17:22:17.012Z,28.13
2022-12-11T17:24:43.611Z,28.19
2022-12-11T17:27:10.238Z,28.15
2022-12-11T17:29:36.857Z,28.19
2022-12-11T17:32:03.423Z,28.22
2022-12-11T17:34:36.102Z,28.20
2022-12-11T17:37:04.403Z,28.26
2022-12-11T17:39:31.259Z,28.20
2022-12-11T17:41:57.834Z,28.30
2022-12-11T17:44:30.437Z,28.25
2022-12-11T17:47:01.187Z,28.25
2022-12-11T17:49:29.226Z,28.24
2022-12-11T17:51:55.858Z,28.10
2022-12-11T17:54:23.637Z,28.10
2022-12-11T17:56:50.421Z,28.15
2022-12-11T17:59:17.257Z,28.17
2022-12-11T18:01:43.954Z,27.98
2022-12-11T18:04:10.604Z,28.10
2022-12-11T18:06:37.384Z,28.22
2022-12-11T18:09:04.067Z,28.18
2022-12-11T18:11:30.899Z,28.26
2022-12-11T18:13:57.522Z,28.22
2022-12-11T18:16:27.319Z,28.29
2022-12-11T18:18:53.989Z,28.30
2022-12-11T18:21:22.778Z,28.33
2022-12-11T18:23:50.290Z,28.33
2022-12-11T18:26:20.555Z,28.28
2022-12-11T18:28:47.706Z,28.34
2022-12-11T18:31:14.532Z,28.32
2022-12-11T18:33:41.987Z,28.32
2022-12-11T18:36:09.119Z,28.29
2022-12-11T18:38:35.697Z,28.16
2022-12-11T18:41:06.053Z,28.30
2022-12-11T18:43:32.660Z,28.28
2022-12-11T18:45:59.231Z,28.27
2022-12-11T18:48:25.822Z,28.23
2022-12-11T18:50:52.495Z,28.08
2022-12-11T18:53:19.568Z,28.14
2022-12-11T18:55:47.584Z,28.21
2022-12-11T18:58:15.255Z,28.29
2022-12-11T19:00:42.018Z,28.18
2022-12-11T19:03:08.976Z,28.15
2022-12-11T19:05:35.948Z,28.19
2022-12-11T19:08:03.093Z,28.15
2022-12-11T19:10:29.773Z,28.11
2022-12-11T19:12:56.398Z,28.06
2022-12-11T19:15:24.091Z,28.11
2022-12-11T19:17:50.994Z,28.14
2022-12-11T19:20:48.544Z,28.17
2022-12-11T19:23:04.602Z,28.25
2022-12-11T19:25:31.429Z,28.25
2022-12-11T19:27:57.994Z,28.24
2022-12-11T19:30:24.810Z,28.13
2022-12-11T19:32:51.377Z,28.25
2022-12-11T19:35:18.440Z,28.35
2022-12-11T19:37:45.040Z,28.23
2022-12-11T19:40:11.774Z,28.32
2022-12-11T19:42:38.336Z,28.21
2022-12-11T19:45:05.287Z,28.23
2022-12-11T19:47:32.083Z,28.24
2022-12-11T19:49:58.638Z,28.17
2022-12-11T19:52:25.193Z,28.32
2022-12-11T19:54:51.786Z,28.22
2022-12-11T19:57:18.419Z,28.25
2022-12-11T19:59:45.193Z,28.26
2022-12-11T20:02:12.355Z,28.16
2022-12-11T20:04:39.154Z,28.27
2022-12-11T20:07:05.753Z,28.30
2022-12-11T20:09:33.655Z,28.23
2022-12-11T20:12:00.257Z,28.28
2022-12-11T20:14:26.806Z,28.25
2022-12-11T20:17:12.955Z,28.34
2022-12-11T20:19:40.303Z,28.36
2022-12-11T20:22:07.107Z,28.19
2022-12-11T20:24:33.803Z,28.24
2022-12-11T20:27:00.435Z,28.18
2022-12-11T20:29:27.017Z,28.25
2022-12-11T20:31:53.682Z,28.27
2022-12-11T20:34:20.374Z,28.38
2022-12-11T20:36:48.169Z,28.43
2022-12-11T20:39:15.262Z,28.33
2022-12-11T20:41:41.931Z,28.39
2022-12-11T20:44:08.562Z,28.43
2022-12-11T20:46:35.144Z,28.48
2022-12-11T20:49:01.799Z,28.43
2022-12-11T20:51:29.090Z,28.45
2022-12-11T20:53:59.670Z,28.57
2022-12-11T20:56:28.083Z,28.61
2022-12-11T20:58:54.884Z,28.55
2022-12-11T21:01:22.715Z,28.74
2022-12-11T21:03:49.445Z,28.70
2022-12-11T21:06:31.998Z,28.63
2022-12-11T21:09:02.591Z,28.72
2022-12-11T21:11:29.213Z,28.79
2022-12-11T21:13:55.922Z,28.82
2022-12-11T21:16:22.653Z,28.71
2022-12-11T21:18:49.338Z,28.76
2022-12-11T21:21:16.023Z,28.79
2022-12-11T21:23:42.738Z,28.76
2022-12-11T21:26:09.340Z,28.79
2022-12-11T21:28:35.992Z,28.77
2022-12-11T21:31:04.079Z,28.81
2022-12-11T21:33:30.644Z,28.85
2022-12-11T21:35:57.531Z,28.95
2022-12-11T21:38:24.413Z,28.91
2022-12-11T21:40:51.315Z,29.01
2022-12-11T21:43:17.990Z,29.00
2022-12-11T21:46:01.678Z,28.96
2022-12-11T21:48:29.006Z,28.91
2022-12-11T21:50:55.709Z,29.03
2022-12-11T21:53:22.305Z,28.90
2022-12-11T21:55:48.871Z,28.87
2022-12-11T21:58:15.761Z,28.81
2022-12-11T22:00:42.421Z,28.82
2022-12-11T22:03:09.061Z,28.91
2022-12-11T22:05:35.655Z,28.90
2022-12-11T22:08:02.724Z,28.93
2022-12-11T22:10:29.365Z,28.80
2022-12-11T22:12:55.961Z,28.76
2022-12-11T22:15:22.517Z,28.96
2022-12-11T22:17:49.232Z,28.84
2022-12-11T22:20:15.865Z,28.89
2022-12-11T22:22:42.619Z,28.92
2022-12-11T22:25:09.806Z,29.04
2022-12-11T22:27:36.627Z,28.98
2022-12-11T22:30:03.846Z,29.11
2022-12-11T22:32:30.405Z,29.17
2022-12-11T22:34:57.822Z,29.04
2022-12-11T22:37:24.578Z,28.95
2022-12-11T22:39:51.182Z,28.90
2022-12-11T22:42:17.779Z,28.74
2022-12-11T22:44:44.358Z,28.77
2022-12-11T22:47:11.269Z,28.74
2022-12-11T22:49:37.860Z,28.86
2022-12-11T22:52:04.631Z,28.95
2022-12-11T22:54:31.253Z,28.79
2022-12-11T22:56:57.871Z,28.84
2022-12-11T22:59:24.452Z,28.94
2022-12-11T23:01:50.992Z,28.86
2022-12-11T23:04:17.588Z,28.90
2022-12-11T23:06:44.133Z,28.90
2022-12-11T23:09:10.842Z,28.87
2022-12-11T23:11:37.565Z,28.86
2022-12-11T23:14:05.844Z,28.86
2022-12-11T23:16:32.503Z,28.84
2022-12-11T23:19:00.474Z,28.78
2022-12-11T23:21:29.826Z,28.84
2022-12-11T23:23:59.569Z,28.82
2022-12-11T23:26:27.310Z,28.79
2022-12-11T23:28:55.063Z,28.87
2022-12-11T23:31:21.683Z,28.79
2022-12-11T23:33:48.320Z,28.78
2022-12-11T23:36:14.931Z,28.78
2022-12-11T23:38:41.650Z,28.73
2022-12-11T23:41:08.799Z,28.69
2022-12-11T23:43:35.621Z,28.79
2022-12-11T23:46:03.942Z,28.78
2022-12-11T23:48:31.249Z,28.76
2022-12-11T23:51:01.211Z,28.84
2022-12-11T23:53:28.189Z,28.88
2022-12-11T23:55:55.040Z,28.83
2022-12-11T23:58:21.804Z,28.76
